Home > Products > Valid Products > MTR

000
SAUS46 KMTR 051256
MTRMHS
METAR KMHS 051256Z AUTO 00000KT 10SM SCT110 08/06 A2988 RMK AO2
SLP122 T00780056





000
SAUS46 KMTR 051256
MTRMHS
METAR KMHS 051256Z AUTO 00000KT 10SM SCT110 08/06 A2988 RMK AO2
SLP122 T00780056





000
SAUS46 KMTR 051156
MTRMHS
METAR KMHS 051156Z AUTO 00000KT 10SM CLR 08/06 A2989 RMK AO2 SLP124
70017 T00780056 10122 20078 58006





000
SAUS46 KMTR 051156
MTRMHS
METAR KMHS 051156Z AUTO 00000KT 10SM CLR 08/06 A2989 RMK AO2 SLP124
70017 T00780056 10122 20078 58006





000
SAUS46 KMTR 050857
MTRMHS
METAR KMHS 050856Z AUTO VRB03KT 10SM CLR 11/07 A2991 RMK AO2 SLP132
T01110072 58002





000
SAUS46 KMTR 050656
MTRMHS
METAR KMHS 050656Z AUTO VRB04KT 10SM CLR 12/07 A2992 RMK AO2 SLP139
T01170072





000
SAUS46 KMTR 050456
MTRMHS
METAR KMHS 050456Z AUTO VRB05KT 10SM BKN090 13/08 A2992 RMK AO2
SLP136 T01280078





000
SAUS46 KMTR 050256
MTRMHS
METAR KMHS 050256Z AUTO VRB06KT 10SM CLR 14/10 A2989 RMK AO2 SLP123
T01390100 53001





000
SAUS46 KMTR 050256
MTRMHS
METAR KMHS 050256Z AUTO VRB06KT 10SM CLR 14/10 A2989 RMK AO2 SLP123
T01390100 53001





000
SAUS46 KMTR 050056
MTRMHS
METAR KMHS 050056Z AUTO 00000KT 10SM FEW100 18/07 A2987 RMK AO2
SLP119 T01780072





000
SAUS46 KMTR 042357
MTRMHS
METAR KMHS 042356Z AUTO VRB03KT 10SM BKN085 17/08 A2988 RMK AO2
SLP124 60008 T01720078 10183 20117 55019





000
SAUS46 KMTR 042357
MTRMHS
METAR KMHS 042356Z AUTO VRB03KT 10SM BKN085 17/08 A2988 RMK AO2
SLP124 60008 T01720078 10183 20117 55019





000
SAUS46 KMTR 042257
MTRMHS
METAR KMHS 042256Z AUTO 00000KT 10SM SCT080 18/08 A2988 RMK AO2
SLP124 T01780083





000
SAUS46 KMTR 042257
MTRMHS
METAR KMHS 042256Z AUTO 00000KT 10SM SCT080 18/08 A2988 RMK AO2
SLP124 T01780083





000
SAUS46 KMTR 042158
MTRMHS
METAR KMHS 042156Z AUTO 00000KT 10SM CLR 17/10 A2992 RMK AO2 SLP136
T01670100





000
SAUS46 KMTR 041956
MTRMHS
METAR KMHS 041956Z AUTO 00000KT 6SM -RA BR OVC060 12/11 A2998 RMK
AO2 RAE17B48 SLP165 P0004 T01170106





000
SAUS46 KMTR 041856
MTRMHS
METAR KMHS 041856Z AUTO 00000KT 4SM RA BR OVC055 12/11 A3000 RMK AO2
SLP167 P0003 T01170106





000
SAUS46 KMTR 041856
MTRMHS
METAR KMHS 041856Z AUTO 00000KT 4SM RA BR OVC055 12/11 A3000 RMK AO2
SLP167 P0003 T01170106





000
SAUS46 KMTR 041757
MTRMHS
METAR KMHS 041756Z AUTO 00000KT 10SM -RA FEW036 BKN065 OVC080 12/10
A2999 RMK AO2 RAE21B43 SLP161 P0003 60009 T01220100 10128 20067
50004





000
SAUS46 KMTR 041757
MTRMHS
METAR KMHS 041756Z AUTO 00000KT 10SM -RA FEW036 BKN065 OVC080 12/10
A2999 RMK AO2 RAE21B43 SLP161 P0003 60009 T01220100 10128 20067
50004





000
SAUS46 KMTR 041728
MTRMHS
SPECI KMHS 041728Z AUTO 00000KT 10SM FEW003 BKN050 OVC090 12/11
A3000 RMK AO2 RAE21 P0002 T01170106





000
SAUS46 KMTR 041658
MTRMHS
METAR KMHS 041656Z AUTO 00000KT 5SM -RA BR OVC055 11/10 A3001 RMK
AO2 SLP168 P0004 T01110100





000
SAUS46 KMTR 041658
MTRMHS
METAR KMHS 041656Z AUTO 00000KT 5SM -RA BR OVC055 11/10 A3001 RMK
AO2 SLP168 P0004 T01110100





000
SAUS46 KMTR 041556
MTRMHS
METAR KMHS 041556Z AUTO 00000KT 6SM -RA BR SCT044 OVC055 11/09 A3000
RMK AO2 RAB32 SLP165 P0002 T01060089





000
SAUS46 KMTR 041456
MTRMHS
METAR KMHS 041456Z AUTO 00000KT 10SM BKN065 OVC080 12/07 A2997 RMK
AO2 SLP154 T01170067 53009





000
SAUS46 KMTR 041358
MTRMHS
METAR KMHS 041356Z AUTO 00000KT 10SM SCT075 BKN095 10/06 A2996 RMK
AO2 SLP149 T01000061





000
SAUS46 KMTR 041057
MTRMHS
METAR KMHS 041056Z AUTO 00000KT 10SM CLR 07/04 A2997 RMK AO2 SLP148
T00670044





000
SAUS46 KMTR 041057
MTRMHS
METAR KMHS 041056Z AUTO 00000KT 10SM CLR 07/04 A2997 RMK AO2 SLP148
T00670044





000
SAUS46 KMTR 040856
MTRMHS
METAR KMHS 040856Z AUTO 00000KT 10SM CLR 08/05 A3000 RMK AO2 SLP162
T00780050 58011





000
SAUS46 KMTR 040856
MTRMHS
METAR KMHS 040856Z AUTO 00000KT 10SM CLR 08/05 A3000 RMK AO2 SLP162
T00780050 58011





000
SAUS46 KMTR 040757
MTRMHS
METAR KMHS 040756Z AUTO 00000KT 10SM CLR 08/06 A3002 RMK AO2 SLP165
T00830056 402220067





000
SAUS46 KMTR 040658
MTRMHS
METAR KMHS 040656Z AUTO 00000KT 10SM SCT080 10/06 A3003 RMK AO2
SLP168 T01000061





000
SAUS46 KMTR 040556
MTRMHS
METAR KMHS 040556Z AUTO 00000KT 10SM CLR 11/07 A3004 RMK AO2 SLP172
60000 T01060067 10200 20106 50003





000
SAUS46 KMTR 040556
MTRMHS
METAR KMHS 040556Z AUTO 00000KT 10SM CLR 11/07 A3004 RMK AO2 SLP172
60000 T01060067 10200 20106 50003





000
SAUS46 KMTR 040458
MTRMHS
METAR KMHS 040456Z AUTO 00000KT 10SM CLR 12/07 A3005 RMK AO2 SLP176
T01170072





000
SAUS46 KMTR 040458
MTRMHS
METAR KMHS 040456Z AUTO 00000KT 10SM CLR 12/07 A3005 RMK AO2 SLP176
T01170072





000
SAUS46 KMTR 040358
MTRMHS
METAR KMHS 040356Z AUTO 00000KT 10SM CLR 13/08 A3004 RMK AO2 SLP174
T01280078





000
SAUS46 KMTR 040156
MTRMHS
METAR KMHS 040156Z AUTO 00000KT 10SM -RA FEW050 BKN070 16/07 A3006
RMK AO2 RAB15E31B51 SLP186 P0000 T01560067





000
SAUS46 KMTR 040156
MTRMHS
METAR KMHS 040156Z AUTO 00000KT 10SM -RA FEW050 BKN070 16/07 A3006
RMK AO2 RAB15E31B51 SLP186 P0000 T01560067





000
SAUS46 KMTR 040056
MTRMHS
METAR KMHS 040056Z AUTO 00000KT 10SM FEW060 BKN085 18/03 A3004 RMK
AO2 SLP178 T01830033





000
SAUS46 KMTR 032258
MTRMHS
METAR KMHS 032256Z AUTO VRB03KT 10SM FEW080 FEW100 22/04 A3003 RMK
AO2 SLP169 T02220044





000
SAUS46 KMTR 032258
MTRMHS
METAR KMHS 032256Z AUTO VRB03KT 10SM FEW080 FEW100 22/04 A3003 RMK
AO2 SLP169 T02220044





000
SAUS46 KMTR 032158
MTRMHS
METAR KMHS 032156Z AUTO 00000KT 10SM FEW110 21/04 A3005 RMK AO2
SLP176 T02060039





000
SAUS46 KMTR 032058
MTRMHS
METAR KMHS 032056Z AUTO 00000KT 10SM FEW038 BKN090 OVC110 19/05
A3005 RMK AO2 RAB16E32 SLP182 P0000 60000 T01890050 57006





000
SAUS46 KMTR 032058
MTRMHS
METAR KMHS 032056Z AUTO 00000KT 10SM FEW038 BKN090 OVC110 19/05
A3005 RMK AO2 RAB16E32 SLP182 P0000 60000 T01890050 57006





000
SAUS46 KMTR 031856
MTRMHS
METAR KMHS 031856Z AUTO 00000KT 10SM CLR 19/05 A3007 RMK AO2 SLP183
T01940050





000
SAUS46 KMTR 031657
MTRMHS
METAR KMHS 031656Z AUTO 00000KT 10SM CLR 16/06 A3008 RMK AO2 SLP187
T01560056





000
SAUS46 KMTR 031657
MTRMHS
METAR KMHS 031656Z AUTO 00000KT 10SM CLR 16/06 A3008 RMK AO2 SLP187
T01560056





000
SAUS46 KMTR 031556
MTRMHS
METAR KMHS 031556Z AUTO 00000KT 10SM CLR 14/06 A3008 RMK AO2 SLP186
T01440056





000
SAUS46 KMTR 031456
MTRMHS
METAR KMHS 031456Z AUTO 00000KT 10SM CLR 11/06 A3007 RMK AO2 SLP186
T01110061 53002





000
SAUS46 KMTR 031356
MTRMHS
METAR KMHS 031356Z AUTO 00000KT 10SM CLR 08/04 A3007 RMK AO2 SLP184
T00830039





000
SAUS46 KMTR 031156
MTRMHS
METAR KMHS 031156Z AUTO 00000KT 10SM CLR 07/04 A3006 RMK AO2 SLP182
T00670039 10111 20067 56006





000
SAUS46 KMTR 031156
MTRMHS
METAR KMHS 031156Z AUTO 00000KT 10SM CLR 07/04 A3006 RMK AO2 SLP182
T00670039 10111 20067 56006





000
SAUS46 KMTR 031056
MTRMHS
METAR KMHS 031056Z AUTO 00000KT 10SM CLR 07/03 A3007 RMK AO2 SLP183
T00670033





000
SAUS46 KMTR 031056
MTRMHS
METAR KMHS 031056Z AUTO 00000KT 10SM CLR 07/03 A3007 RMK AO2 SLP183
T00670033





000
SAUS46 KMTR 030957
MTRMHS
METAR KMHS 030956Z AUTO 00000KT 10SM CLR 07/03 A3007 RMK AO2 SLP181
T00720033





000
SAUS46 KMTR 030856
MTRMHS
METAR KMHS 030856Z AUTO 00000KT 10SM CLR 07/03 A3008 RMK AO2 SLP188
T00670033 50000





000
SAUS46 KMTR 030856
MTRMHS
METAR KMHS 030856Z AUTO 00000KT 10SM CLR 07/03 A3008 RMK AO2 SLP188
T00670033 50000





000
SAUS46 KMTR 030757
MTRMHS
METAR KMHS 030756Z AUTO 00000KT 10SM CLR 08/03 A3009 RMK AO2 SLP191
T00780033 402280033





000
SAUS46 KMTR 030657
MTRMHS
METAR KMHS 030656Z AUTO 00000KT 10SM CLR 09/04 A3008 RMK AO2 SLP187
T00890039





000
SAUS46 KMTR 030657
MTRMHS
METAR KMHS 030656Z AUTO 00000KT 10SM CLR 09/04 A3008 RMK AO2 SLP187
T00890039





000
SAUS46 KMTR 030557
MTRMHS
METAR KMHS 030556Z AUTO 00000KT 10SM CLR 11/03 A3008 RMK AO2 SLP185
T01110033 10211 20111 51009





000
SAUS46 KMTR 030557
MTRMHS
METAR KMHS 030556Z AUTO 00000KT 10SM CLR 11/03 A3008 RMK AO2 SLP185
T01110033 10211 20111 51009





000
SAUS46 KMTR 030456
MTRMHS
METAR KMHS 030456Z AUTO 00000KT 10SM CLR 12/03 A3008 RMK AO2 SLP186
T01170033





000
SAUS46 KMTR 030357
MTRMHS
METAR KMHS 030356Z AUTO 00000KT 10SM CLR 14/03 A3007 RMK AO2 SLP184
T01440033





000
SAUS46 KMTR 030257
MTRMHS
METAR KMHS 030256Z AUTO 00000KT 10SM CLR 16/04 A3005 RMK AO2 SLP180
T01560039 53002





000
SAUS46 KMTR 030156
MTRMHS
METAR KMHS 030156Z AUTO 00000KT 10SM CLR 19/02 A3005 RMK AO2 SLP181
T01890017





000
SAUS46 KMTR 030056
MTRMHS
METAR KMHS 030056Z AUTO 00000KT 10SM CLR 21/02 A3005 RMK AO2 SLP180
T02060022





000
SAUS46 KMTR 030056
MTRMHS
METAR KMHS 030056Z AUTO 00000KT 10SM CLR 21/02 A3005 RMK AO2 SLP180
T02060022





000
SAUS46 KMTR 022357
MTRMHS
METAR KMHS 022356Z AUTO 10SM CLR 21/02 A3005 RMK AO2 SLP181
T02060022 10228 20194 56008





000
SAUS46 KMTR 022357
MTRMHS
METAR KMHS 022356Z AUTO 10SM CLR 21/02 A3005 RMK AO2 SLP181
T02060022 10228 20194 56008





000
SAUS46 KMTR 022257
MTRMHS
METAR KMHS 022256Z AUTO 00000KT 10SM CLR 23/04 A3005 RMK AO2 SLP180
T02280039





000
SAUS46 KMTR 022156
MTRMHS
METAR KMHS 022156Z AUTO VRB03KT 10SM CLR 22/03 A3006 RMK AO2 SLP183
T02220033





000
SAUS46 KMTR 022057
MTRMHS
METAR KMHS 022056Z AUTO VRB03KT 10SM SCT060 22/06 A3007 RMK AO2
SLP185 T02220056 58005





000
SAUS46 KMTR 021957
MTRMHS
METAR KMHS 021956Z AUTO 00000KT 10SM CLR 21/06 A3008 RMK AO2 SLP189
T02110061





000
SAUS46 KMTR 021857
MTRMHS
METAR KMHS 021856Z AUTO 00000KT 10SM CLR 21/04 A3009 RMK AO2 SLP192
T02060044





000
SAUS46 KMTR 021757
MTRMHS
METAR KMHS 021756Z AUTO 15004KT 10SM CLR 19/05 A3009 RMK AO2 SLP191
T01940050 10200 20033 51003





000
SAUS46 KMTR 021757
MTRMHS
METAR KMHS 021756Z AUTO 15004KT 10SM CLR 19/05 A3009 RMK AO2 SLP191
T01940050 10200 20033 51003





000
SAUS46 KMTR 021657
MTRMHS
METAR KMHS 021656Z AUTO 00000KT 10SM CLR 18/05 A3009 RMK AO2 SLP190
T01830050





000
SAUS46 KMTR 021557
MTRMHS
METAR KMHS 021556Z AUTO 00000KT 10SM CLR 15/06 A3009 RMK AO2 SLP192
T01500056





000
SAUS46 KMTR 021557
MTRMHS
METAR KMHS 021556Z AUTO 00000KT 10SM CLR 15/06 A3009 RMK AO2 SLP192
T01500056





000
SAUS46 KMTR 021457
MTRMHS
METAR KMHS 021456Z AUTO 00000KT 10SM CLR 11/04 A3008 RMK AO2 SLP191
T01060044 53009





    US Dept of Commerce
    National Oceanic and Atmospheric Administration
    National Weather Service
    1325 East West Highway
    Silver Spring, MD 20910
    Page Author: NWS Internet Services Team
Disclaimer
Information Quality
Credits
Glossary
Privacy Policy
Freedom of Information Act (FOIA)
About Us
Career Opportunities